Anatone, Washington
Current Conditions -  °F | °C
As of 11:56 PM on Thursday 27 Nov 2014 (Local Time) from KLWS Reporting Station
Overcast Overcast  
Wind Chill: 58°   Ceiling: 7000
Heat Index: 58°   Visibility: 10mi
Dew Point: 43°   Wind: 21mph
Humidity: 58%   Direction: 200°SSW
Pressure: 29.78"   Gusts: 24mph
Location:  46.13°N, 117.13°W
Report Text: KLWS 280756Z AUTO 20018G21KT 10SM OVC070 14/06 A2978 RMK AO2 SLP083 T01440061 401560061
Loading
Personal Weather Stations






























Interactive Weather Map New forecast layout! Learn more

10-Day Weather Forecast

Advertisements
Track Severe Weather on mobile